sensor_id;sensor_type;location;lat;lon;timestamp;pressure;altitude;pressure_sealevel;temperature;humidity
80629;BME280;69983;42.370;-71.210;2023-08-12T00:00:28;100692.37;;;25.56;25.22
80629;BME280;69983;42.370;-71.210;2023-08-12T00:02:28;100699.79;;;24.46;25.49
80629;BME280;69983;42.370;-71.210;2023-08-12T00:04:30;100707.39;;;24.76;25.28
80629;BME280;69983;42.370;-71.210;2023-08-12T00:06:30;100712.01;;;24.37;25.50
80629;BME280;69983;42.370;-71.210;2023-08-12T00:08:30;100714.39;;;24.89;25.48
80629;BME280;69983;42.370;-71.210;2023-08-12T00:10:32;100718.75;;;25.35;25.20
80629;BME280;69983;42.370;-71.210;2023-08-12T00:12:32;100724.77;;;25.40;25.07
80629;BME280;69983;42.370;-71.210;2023-08-12T00:14:32;100731.02;;;25.19;25.18
80629;BME280;69983;42.370;-71.210;2023-08-12T00:16:32;100738.18;;;24.55;25.53
80629;BME280;69983;42.370;-71.210;2023-08-12T00:18:32;100744.62;;;24.00;25.71
80629;BME280;69983;42.370;-71.210;2023-08-12T00:20:33;100742.51;;;23.60;25.63
80629;BME280;69983;42.370;-71.210;2023-08-12T00:22:33;100744.15;;;23.88;25.72
80629;BME280;69983;42.370;-71.210;2023-08-12T00:24:34;100741.82;;;24.56;25.28
80629;BME280;69983;42.370;-71.210;2023-08-12T00:26:35;100744.12;;;25.21;25.07
80629;BME280;69983;42.370;-71.210;2023-08-12T00:28:35;100745.88;;;25.29;24.90
80629;BME280;69983;42.370;-71.210;2023-08-12T00:30:36;100745.00;;;25.28;25.08
80629;BME280;69983;42.370;-71.210;2023-08-12T00:32:36;100747.98;;;24.72;25.25
80629;BME280;69983;42.370;-71.210;2023-08-12T00:34:37;100749.24;;;24.49;25.04
80629;BME280;69983;42.370;-71.210;2023-08-12T00:36:37;100755.72;;;24.32;25.75
80629;BME280;69983;42.370;-71.210;2023-08-12T00:38:37;100761.25;;;25.33;25.03
80629;BME280;69983;42.370;-71.210;2023-08-12T00:40:38;100762.87;;;25.42;24.85
80629;BME280;69983;42.370;-71.210;2023-08-12T00:42:38;100770.54;;;25.38;24.86
80629;BME280;69983;42.370;-71.210;2023-08-12T00:44:39;100782.11;;;25.14;25.02
80629;BME280;69983;42.370;-71.210;2023-08-12T00:46:41;100788.05;;;24.63;25.23
80629;BME280;69983;42.370;-71.210;2023-08-12T00:48:41;100787.52;;;24.23;25.58
80629;BME280;69983;42.370;-71.210;2023-08-12T00:50:41;100787.14;;;24.59;25.72
80629;BME280;69983;42.370;-71.210;2023-08-12T00:52:41;100793.01;;;25.38;25.19
80629;BME280;69983;42.370;-71.210;2023-08-12T00:54:41;100796.20;;;25.32;25.17
80629;BME280;69983;42.370;-71.210;2023-08-12T00:56:42;100796.37;;;25.59;25.07
80629;BME280;69983;42.370;-71.210;2023-08-12T00:58:43;100793.94;;;24.08;24.99
80629;BME280;69983;42.370;-71.210;2023-08-12T01:00:43;100788.78;;;23.95;24.50
80629;BME280;69983;42.370;-71.210;2023-08-12T01:02:45;100792.58;;;23.87;24.01
80629;BME280;69983;42.370;-71.210;2023-08-12T01:04:43;100796.48;;;23.55;23.80
80629;BME280;69983;42.370;-71.210;2023-08-12T01:06:45;100797.34;;;24.30;23.67
80629;BME280;69983;42.370;-71.210;2023-08-12T01:08:45;100805.44;;;26.30;23.58
80629;BME280;69983;42.370;-71.210;2023-08-12T01:10:47;100808.82;;;26.18;23.95
80629;BME280;69983;42.370;-71.210;2023-08-12T01:12:50;100817.41;;;26.12;24.35
80629;BME280;69983;42.370;-71.210;2023-08-12T01:14:49;100822.70;;;26.03;24.55
80629;BME280;69983;42.370;-71.210;2023-08-12T01:16:49;100827.79;;;25.88;24.63
80629;BME280;69983;42.370;-71.210;2023-08-12T01:18:47;100832.34;;;25.27;24.74
80629;BME280;69983;42.370;-71.210;2023-08-12T01:20:47;100833.53;;;24.74;25.06
80629;BME280;69983;42.370;-71.210;2023-08-12T01:22:48;100836.74;;;24.70;25.49
80629;BME280;69983;42.370;-71.210;2023-08-12T01:24:47;100842.69;;;25.20;25.11
80629;BME280;69983;42.370;-71.210;2023-08-12T01:26:48;100851.33;;;25.51;24.93
80629;BME280;69983;42.370;-71.210;2023-08-12T01:28:48;100856.74;;;25.95;24.89
80629;BME280;69983;42.370;-71.210;2023-08-12T01:30:55;100859.39;;;25.83;24.91
80629;BME280;69983;42.370;-71.210;2023-08-12T01:32:56;100861.60;;;25.52;24.81
80629;BME280;69983;42.370;-71.210;2023-08-12T01:34:55;100860.79;;;25.26;24.94
80629;BME280;69983;42.370;-71.210;2023-08-12T01:36:54;100857.25;;;24.87;24.91
80629;BME280;69983;42.370;-71.210;2023-08-12T01:38:52;100857.47;;;24.37;25.19
80629;BME280;69983;42.370;-71.210;2023-08-12T01:40:52;100858.97;;;24.77;25.29
80629;BME280;69983;42.370;-71.210;2023-08-12T01:42:52;100868.06;;;25.24;24.97
80629;BME280;69983;42.370;-71.210;2023-08-12T01:44:53;100868.29;;;25.41;24.99
80629;BME280;69983;42.370;-71.210;2023-08-12T01:46:53;100870.78;;;25.47;24.85
80629;BME280;69983;42.370;-71.210;2023-08-12T01:48:53;100877.31;;;25.43;24.86
80629;BME280;69983;42.370;-71.210;2023-08-12T01:50:53;100885.89;;;25.40;24.73
80629;BME280;69983;42.370;-71.210;2023-08-12T01:52:54;100888.18;;;25.29;24.58
80629;BME280;69983;42.370;-71.210;2023-08-12T01:54:54;100882.78;;;24.69;24.80
80629;BME280;69983;42.370;-71.210;2023-08-12T01:56:54;100882.10;;;24.93;24.86
80629;BME280;69983;42.370;-71.210;2023-08-12T01:58:55;100883.60;;;25.19;24.77
80629;BME280;69983;42.370;-71.210;2023-08-12T02:00:55;100887.21;;;25.24;24.67
80629;BME280;69983;42.370;-71.210;2023-08-12T02:02:56;100893.36;;;25.65;24.59
80629;BME280;69983;42.370;-71.210;2023-08-12T02:04:56;100900.65;;;25.32;24.86
80629;BME280;69983;42.370;-71.210;2023-08-12T02:06:56;100908.02;;;25.63;24.57
80629;BME280;69983;42.370;-71.210;2023-08-12T02:08:57;100914.37;;;25.03;24.57
80629;BME280;69983;42.370;-71.210;2023-08-12T02:10:57;100915.73;;;24.76;24.73
80629;BME280;69983;42.370;-71.210;2023-08-12T02:12:57;100911.93;;;24.73;24.42
80629;BME280;69983;42.370;-71.210;2023-08-12T02:14:58;100910.19;;;24.87;24.37
80629;BME280;69983;42.370;-71.210;2023-08-12T02:16:58;100909.07;;;24.42;24.51
80629;BME280;69983;42.370;-71.210;2023-08-12T02:18:58;100909.68;;;24.09;24.54
80629;BME280;69983;42.370;-71.210;2023-08-12T02:20:58;100911.26;;;25.03;24.27
80629;BME280;69983;42.370;-71.210;2023-08-12T02:22:59;100913.59;;;25.35;24.17
80629;BME280;69983;42.370;-71.210;2023-08-12T02:25:00;100915.38;;;25.47;24.23
80629;BME280;69983;42.370;-71.210;2023-08-12T02:27:01;100922.01;;;25.20;24.14
80629;BME280;69983;42.370;-71.210;2023-08-12T02:29:01;100923.35;;;25.40;24.39
80629;BME280;69983;42.370;-71.210;2023-08-12T02:31:01;100929.63;;;25.36;24.31
80629;BME280;69983;42.370;-71.210;2023-08-12T02:33:02;100935.84;;;25.62;24.15
80629;BME280;69983;42.370;-71.210;2023-08-12T02:35:02;100943.36;;;25.08;24.21
80629;BME280;69983;42.370;-71.210;2023-08-12T02:37:03;100950.54;;;25.20;24.05
80629;BME280;69983;42.370;-71.210;2023-08-12T02:39:03;100957.27;;;24.91;23.98
80629;BME280;69983;42.370;-71.210;2023-08-12T02:41:03;100962.84;;;24.67;24.12
80629;BME280;69983;42.370;-71.210;2023-08-12T02:43:04;100962.10;;;25.00;23.83
80629;BME280;69983;42.370;-71.210;2023-08-12T02:45:05;100960.60;;;25.16;23.83
80629;BME280;69983;42.370;-71.210;2023-08-12T02:47:05;100957.77;;;25.48;23.72
80629;BME280;69983;42.370;-71.210;2023-08-12T02:49:06;100951.33;;;25.37;23.75
80629;BME280;69983;42.370;-71.210;2023-08-12T02:51:06;100950.19;;;25.52;23.77
80629;BME280;69983;42.370;-71.210;2023-08-12T02:53:07;100952.09;;;25.83;23.85
80629;BME280;69983;42.370;-71.210;2023-08-12T02:55:07;100951.60;;;25.89;23.87
80629;BME280;69983;42.370;-71.210;2023-08-12T02:57:07;100954.58;;;25.57;23.94
80629;BME280;69983;42.370;-71.210;2023-08-12T02:59:07;100960.64;;;25.96;23.85
80629;BME280;69983;42.370;-71.210;2023-08-12T03:01:07;100962.74;;;25.69;23.75
80629;BME280;69983;42.370;-71.210;2023-08-12T03:03:07;100965.72;;;25.23;23.66
80629;BME280;69983;42.370;-71.210;2023-08-12T03:05:08;100970.00;;;25.14;23.60
80629;BME280;69983;42.370;-71.210;2023-08-12T03:07:09;100970.51;;;25.16;23.59
80629;BME280;69983;42.370;-71.210;2023-08-12T03:09:09;100971.86;;;25.00;23.38
80629;BME280;69983;42.370;-71.210;2023-08-12T03:11:09;100973.26;;;25.25;23.44
80629;BME280;69983;42.370;-71.210;2023-08-12T03:13:09;100973.76;;;25.53;23.36
80629;BME280;69983;42.370;-71.210;2023-08-12T03:15:10;100973.11;;;25.71;23.37
80629;BME280;69983;42.370;-71.210;2023-08-12T03:17:11;100975.00;;;25.77;23.45
80629;BME280;69983;42.370;-71.210;2023-08-12T03:19:11;100974.77;;;25.92;23.45
80629;BME280;69983;42.370;-71.210;2023-08-12T03:21:10;100980.60;;;25.83;23.47
80629;BME280;69983;42.370;-71.210;2023-08-12T03:23:11;100984.55;;;25.86;23.55
80629;BME280;69983;42.370;-71.210;2023-08-12T03:25:12;100987.77;;;25.80;23.58
80629;BME280;69983;42.370;-71.210;2023-08-12T03:27:12;100990.79;;;25.85;23.49
80629;BME280;69983;42.370;-71.210;2023-08-12T03:29:12;100989.93;;;25.51;23.77
80629;BME280;69983;42.370;-71.210;2023-08-12T03:31:13;100987.17;;;25.26;23.61
80629;BME280;69983;42.370;-71.210;2023-08-12T03:33:14;100985.33;;;25.50;23.35
80629;BME280;69983;42.370;-71.210;2023-08-12T03:35:16;100986.91;;;24.98;23.42
80629;BME280;69983;42.370;-71.210;2023-08-12T03:37:15;100986.22;;;24.81;23.59
80629;BME280;69983;42.370;-71.210;2023-08-12T03:39:15;100981.44;;;25.17;23.44
80629;BME280;69983;42.370;-71.210;2023-08-12T03:41:17;100989.20;;;25.34;23.43
80629;BME280;69983;42.370;-71.210;2023-08-12T03:43:15;100993.09;;;25.58;23.37
80629;BME280;69983;42.370;-71.210;2023-08-12T03:45:16;100993.16;;;25.41;23.44
80629;BME280;69983;42.370;-71.210;2023-08-12T03:47:16;100990.49;;;25.61;23.46
80629;BME280;69983;42.370;-71.210;2023-08-12T03:49:17;100992.70;;;25.92;23.49
80629;BME280;69983;42.370;-71.210;2023-08-12T03:51:17;100997.92;;;25.65;23.59
80629;BME280;69983;42.370;-71.210;2023-08-12T03:53:18;100999.07;;;25.81;23.55
80629;BME280;69983;42.370;-71.210;2023-08-12T03:55:18;100995.97;;;25.87;23.58
80629;BME280;69983;42.370;-71.210;2023-08-12T03:57:18;100997.12;;;25.85;23.68
80629;BME280;69983;42.370;-71.210;2023-08-12T03:59:19;101001.64;;;25.89;23.73
80629;BME280;69983;42.370;-71.210;2023-08-12T04:01:20;101003.92;;;26.03;23.61
80629;BME280;69983;42.370;-71.210;2023-08-12T04:03:20;101002.51;;;25.80;23.48
80629;BME280;69983;42.370;-71.210;2023-08-12T04:05:20;101007.12;;;25.58;23.29
80629;BME280;69983;42.370;-71.210;2023-08-12T04:07:20;101014.91;;;25.40;23.47
80629;BME280;69983;42.370;-71.210;2023-08-12T04:09:21;101014.62;;;24.84;23.67
80629;BME280;69983;42.370;-71.210;2023-08-12T04:11:22;101016.41;;;25.10;23.45
80629;BME280;69983;42.370;-71.210;2023-08-12T04:13:22;101019.19;;;25.13;23.45
80629;BME280;69983;42.370;-71.210;2023-08-12T04:15:23;101018.32;;;25.24;23.47
80629;BME280;69983;42.370;-71.210;2023-08-12T04:17:23;101014.57;;;25.60;23.50
80629;BME280;69983;42.370;-71.210;2023-08-12T04:19:24;101014.13;;;25.53;23.48
80629;BME280;69983;42.370;-71.210;2023-08-12T04:21:24;101014.41;;;25.26;23.62
80629;BME280;69983;42.370;-71.210;2023-08-12T04:23:24;101016.14;;;25.56;23.65
80629;BME280;69983;42.370;-71.210;2023-08-12T04:25:26;101020.37;;;25.66;23.67
80629;BME280;69983;42.370;-71.210;2023-08-12T04:27:25;101025.73;;;25.77;23.68
80629;BME280;69983;42.370;-71.210;2023-08-12T04:29:25;101027.83;;;25.89;23.69
80629;BME280;69983;42.370;-71.210;2023-08-12T04:31:25;101026.45;;;25.67;23.77
80629;BME280;69983;42.370;-71.210;2023-08-12T04:33:26;101024.79;;;25.98;23.81
80629;BME280;69983;42.370;-71.210;2023-08-12T04:35:27;101027.34;;;25.66;23.96
80629;BME280;69983;42.370;-71.210;2023-08-12T04:37:27;101027.58;;;25.80;24.01
80629;BME280;69983;42.370;-71.210;2023-08-12T04:39:28;101027.44;;;25.74;23.78
80629;BME280;69983;42.370;-71.210;2023-08-12T04:41:28;101029.12;;;25.51;23.69
80629;BME280;69983;42.370;-71.210;2023-08-12T04:43:28;101032.62;;;25.22;23.71
80629;BME280;69983;42.370;-71.210;2023-08-12T04:45:28;101027.94;;;24.80;23.70
80629;BME280;69983;42.370;-71.210;2023-08-12T04:47:28;101027.63;;;24.95;23.89
80629;BME280;69983;42.370;-71.210;2023-08-12T04:49:28;101030.09;;;25.26;23.79
80629;BME280;69983;42.370;-71.210;2023-08-12T04:51:28;101032.07;;;24.90;23.82
80629;BME280;69983;42.370;-71.210;2023-08-12T04:53:29;101032.76;;;25.51;23.86
80629;BME280;69983;42.370;-71.210;2023-08-12T04:55:29;101030.51;;;25.30;23.93
80629;BME280;69983;42.370;-71.210;2023-08-12T04:57:29;101032.17;;;25.33;24.02
80629;BME280;69983;42.370;-71.210;2023-08-12T04:59:29;101035.74;;;25.36;24.13
80629;BME280;69983;42.370;-71.210;2023-08-12T05:01:29;101036.57;;;25.51;24.09
80629;BME280;69983;42.370;-71.210;2023-08-12T05:03:29;101035.62;;;25.35;24.14
80629;BME280;69983;42.370;-71.210;2023-08-12T05:05:29;101035.81;;;25.14;24.37
80629;BME280;69983;42.370;-71.210;2023-08-12T05:07:30;101036.38;;;25.45;24.42
80629;BME280;69983;42.370;-71.210;2023-08-12T05:09:29;101034.47;;;25.60;24.35
80629;BME280;69983;42.370;-71.210;2023-08-12T05:11:30;101038.69;;;25.43;24.04
80629;BME280;69983;42.370;-71.210;2023-08-12T05:13:30;101038.18;;;24.97;24.22
80629;BME280;69983;42.370;-71.210;2023-08-12T05:15:30;101039.79;;;25.00;24.14
80629;BME280;69983;42.370;-71.210;2023-08-12T05:17:31;101042.43;;;24.60;23.97
80629;BME280;69983;42.370;-71.210;2023-08-12T05:19:30;101043.00;;;24.54;24.04
80629;BME280;69983;42.370;-71.210;2023-08-12T05:21:31;101044.27;;;24.83;24.09
80629;BME280;69983;42.370;-71.210;2023-08-12T05:23:30;101043.41;;;24.70;24.13
80629;BME280;69983;42.370;-71.210;2023-08-12T05:25:32;101044.60;;;25.21;24.23
80629;BME280;69983;42.370;-71.210;2023-08-12T05:27:32;101041.24;;;25.07;24.25
80629;BME280;69983;42.370;-71.210;2023-08-12T05:29:31;101045.85;;;25.09;24.17
80629;BME280;69983;42.370;-71.210;2023-08-12T05:31:31;101047.13;;;25.12;24.24
80629;BME280;69983;42.370;-71.210;2023-08-12T05:33:31;101050.64;;;25.21;24.33
80629;BME280;69983;42.370;-71.210;2023-08-12T05:35:33;101050.73;;;25.26;24.36
80629;BME280;69983;42.370;-71.210;2023-08-12T05:37:31;101049.58;;;25.29;24.42
80629;BME280;69983;42.370;-71.210;2023-08-12T05:39:31;101052.24;;;25.30;24.17
80629;BME280;69983;42.370;-71.210;2023-08-12T05:41:32;101053.16;;;25.01;24.23
80629;BME280;69983;42.370;-71.210;2023-08-12T05:43:32;101052.41;;;24.65;24.19
80629;BME280;69983;42.370;-71.210;2023-08-12T05:45:32;101053.44;;;24.58;24.07
80629;BME280;69983;42.370;-71.210;2023-08-12T05:47:32;101056.64;;;24.40;24.24
80629;BME280;69983;42.370;-71.210;2023-08-12T05:49:32;101056.91;;;24.63;24.15
80629;BME280;69983;42.370;-71.210;2023-08-12T05:51:32;101050.00;;;24.52;24.17
80629;BME280;69983;42.370;-71.210;2023-08-12T05:53:33;101046.87;;;24.84;24.22
80629;BME280;69983;42.370;-71.210;2023-08-12T05:55:34;101043.11;;;24.99;24.20
80629;BME280;69983;42.370;-71.210;2023-08-12T05:57:33;101046.32;;;24.77;24.27
80629;BME280;69983;42.370;-71.210;2023-08-12T05:59:33;101044.48;;;24.96;24.40
80629;BME280;69983;42.370;-71.210;2023-08-12T06:01:33;101037.81;;;25.02;24.44
80629;BME280;69983;42.370;-71.210;2023-08-12T06:03:32;101036.96;;;25.23;24.36
80629;BME280;69983;42.370;-71.210;2023-08-12T06:05:33;101036.04;;;24.97;24.46
80629;BME280;69983;42.370;-71.210;2023-08-12T06:07:33;101039.30;;;25.30;24.21
80629;BME280;69983;42.370;-71.210;2023-08-12T06:09:33;101039.96;;;25.05;24.01
80629;BME280;69983;42.370;-71.210;2023-08-12T06:11:33;101046.45;;;24.54;24.26
80629;BME280;69983;42.370;-71.210;2023-08-12T06:13:33;101044.25;;;24.41;24.03
80629;BME280;69983;42.370;-71.210;2023-08-12T06:15:34;101045.51;;;24.58;24.10
80629;BME280;69983;42.370;-71.210;2023-08-12T06:17:33;101046.25;;;24.48;24.10
80629;BME280;69983;42.370;-71.210;2023-08-12T06:19:33;101042.43;;;24.32;24.16
80629;BME280;69983;42.370;-71.210;2023-08-12T06:21:33;101038.83;;;24.73;24.31
80629;BME280;69983;42.370;-71.210;2023-08-12T06:23:33;101041.58;;;25.03;24.19
80629;BME280;69983;42.370;-71.210;2023-08-12T06:25:34;101044.98;;;25.03;24.26
80629;BME280;69983;42.370;-71.210;2023-08-12T06:27:33;101041.35;;;24.94;24.24
80629;BME280;69983;42.370;-71.210;2023-08-12T06:29:34;101041.53;;;25.02;24.29
80629;BME280;69983;42.370;-71.210;2023-08-12T06:31:34;101040.67;;;25.08;24.34
80629;BME280;69983;42.370;-71.210;2023-08-12T06:33:34;101042.85;;;24.93;24.34
80629;BME280;69983;42.370;-71.210;2023-08-12T06:35:34;101042.99;;;24.75;24.54
80629;BME280;69983;42.370;-71.210;2023-08-12T06:37:34;101044.79;;;24.61;24.55
80629;BME280;69983;42.370;-71.210;2023-08-12T06:39:34;101042.78;;;24.75;24.71
80629;BME280;69983;42.370;-71.210;2023-08-12T06:41:34;101041.05;;;24.82;24.79
80629;BME280;69983;42.370;-71.210;2023-08-12T06:43:35;101040.06;;;24.87;24.80
80629;BME280;69983;42.370;-71.210;2023-08-12T06:45:35;101042.79;;;25.06;24.91
80629;BME280;69983;42.370;-71.210;2023-08-12T06:47:35;101042.54;;;24.96;24.75
80629;BME280;69983;42.370;-71.210;2023-08-12T06:49:35;101043.18;;;24.67;24.64
80629;BME280;69983;42.370;-71.210;2023-08-12T06:51:35;101040.24;;;24.73;24.41
80629;BME280;69983;42.370;-71.210;2023-08-12T06:53:35;101046.55;;;24.34;24.32
80629;BME280;69983;42.370;-71.210;2023-08-12T06:55:35;101051.17;;;23.93;24.20
80629;BME280;69983;42.370;-71.210;2023-08-12T06:57:35;101050.85;;;24.01;24.47
80629;BME280;69983;42.370;-71.210;2023-08-12T06:59:35;101049.61;;;24.27;24.36
80629;BME280;69983;42.370;-71.210;2023-08-12T07:01:35;101051.64;;;24.72;24.32
80629;BME280;69983;42.370;-71.210;2023-08-12T07:03:35;101057.68;;;24.75;24.39
80629;BME280;69983;42.370;-71.210;2023-08-12T07:05:36;101061.46;;;24.73;24.49
80629;BME280;69983;42.370;-71.210;2023-08-12T07:07:36;101063.37;;;24.68;24.42
80629;BME280;69983;42.370;-71.210;2023-08-12T07:09:36;101063.22;;;24.46;24.47
80629;BME280;69983;42.370;-71.210;2023-08-12T07:11:36;101065.44;;;24.73;24.53
80629;BME280;69983;42.370;-71.210;2023-08-12T07:13:36;101065.25;;;24.78;24.54
80629;BME280;69983;42.370;-71.210;2023-08-12T07:15:36;101061.95;;;24.89;24.52
80629;BME280;69983;42.370;-71.210;2023-08-12T07:17:36;101058.47;;;24.85;24.61
80629;BME280;69983;42.370;-71.210;2023-08-12T07:19:36;101056.65;;;24.88;24.66
80629;BME280;69983;42.370;-71.210;2023-08-12T07:21:36;101061.62;;;24.59;24.74
80629;BME280;69983;42.370;-71.210;2023-08-12T07:23:36;101067.66;;;24.95;24.72
80629;BME280;69983;42.370;-71.210;2023-08-12T07:25:37;101071.41;;;25.16;24.78
80629;BME280;69983;42.370;-71.210;2023-08-12T07:27:37;101073.43;;;24.70;24.82
80629;BME280;69983;42.370;-71.210;2023-08-12T07:29:37;101078.20;;;24.73;24.86
80629;BME280;69983;42.370;-71.210;2023-08-12T07:31:37;101082.86;;;24.88;24.96
80629;BME280;69983;42.370;-71.210;2023-08-12T07:33:37;101089.34;;;24.89;24.68
80629;BME280;69983;42.370;-71.210;2023-08-12T07:35:37;101090.20;;;24.97;24.59
80629;BME280;69983;42.370;-71.210;2023-08-12T07:37:37;101087.79;;;24.65;24.39
80629;BME280;69983;42.370;-71.210;2023-08-12T07:39:37;101082.72;;;24.33;24.43
80629;BME280;69983;42.370;-71.210;2023-08-12T07:41:37;101086.69;;;24.50;24.43
80629;BME280;69983;42.370;-71.210;2023-08-12T07:43:37;101088.16;;;24.59;24.43
80629;BME280;69983;42.370;-71.210;2023-08-12T07:45:38;101090.29;;;24.66;24.50
80629;BME280;69983;42.370;-71.210;2023-08-12T07:47:38;101093.53;;;24.69;24.58
80629;BME280;69983;42.370;-71.210;2023-08-12T07:49:38;101095.65;;;24.66;24.67
80629;BME280;69983;42.370;-71.210;2023-08-12T07:51:38;101098.39;;;24.47;24.74
80629;BME280;69983;42.370;-71.210;2023-08-12T07:53:38;101098.84;;;24.60;24.74
80629;BME280;69983;42.370;-71.210;2023-08-12T07:55:38;101097.53;;;24.73;24.68
80629;BME280;69983;42.370;-71.210;2023-08-12T07:57:38;101095.05;;;24.65;24.81
80629;BME280;69983;42.370;-71.210;2023-08-12T07:59:38;101094.92;;;24.61;24.94
80629;BME280;69983;42.370;-71.210;2023-08-12T08:01:38;101098.54;;;25.07;24.80
80629;BME280;69983;42.370;-71.210;2023-08-12T08:03:38;101103.87;;;24.84;24.88
80629;BME280;69983;42.370;-71.210;2023-08-12T08:05:40;101105.39;;;24.85;24.97
80629;BME280;69983;42.370;-71.210;2023-08-12T08:07:38;101109.56;;;24.83;24.55
80629;BME280;69983;42.370;-71.210;2023-08-12T08:09:39;101115.57;;;24.44;24.45
80629;BME280;69983;42.370;-71.210;2023-08-12T08:11:39;101118.50;;;24.23;24.52
80629;BME280;69983;42.370;-71.210;2023-08-12T08:13:39;101119.12;;;24.29;24.28
80629;BME280;69983;42.370;-71.210;2023-08-12T08:15:39;101122.40;;;24.22;24.34
80629;BME280;69983;42.370;-71.210;2023-08-12T08:17:39;101121.66;;;24.45;24.27
80629;BME280;69983;42.370;-71.210;2023-08-12T08:19:39;101122.54;;;24.42;24.42
80629;BME280;69983;42.370;-71.210;2023-08-12T08:21:39;101123.73;;;24.44;24.51
80629;BME280;69983;42.370;-71.210;2023-08-12T08:23:40;101120.57;;;24.54;24.50
80629;BME280;69983;42.370;-71.210;2023-08-12T08:25:39;101119.02;;;24.43;24.49
80629;BME280;69983;42.370;-71.210;2023-08-12T08:27:40;101119.60;;;24.74;24.50
80629;BME280;69983;42.370;-71.210;2023-08-12T08:29:40;101120.89;;;25.38;24.16
80629;BME280;69983;42.370;-71.210;2023-08-12T08:31:40;101122.00;;;25.21;23.91
80629;BME280;69983;42.370;-71.210;2023-08-12T08:33:40;101124.41;;;25.51;23.90
80629;BME280;69983;42.370;-71.210;2023-08-12T08:35:40;101124.89;;;24.33;24.00
80629;BME280;69983;42.370;-71.210;2023-08-12T08:37:41;101127.91;;;24.73;23.67
80629;BME280;69983;42.370;-71.210;2023-08-12T08:39:40;101129.19;;;24.26;23.73
80629;BME280;69983;42.370;-71.210;2023-08-12T08:41:41;101132.33;;;24.83;23.55
80629;BME280;69983;42.370;-71.210;2023-08-12T08:43:43;101135.61;;;25.31;23.24
80629;BME280;69983;42.370;-71.210;2023-08-12T08:45:42;101132.20;;;25.42;23.21
80629;BME280;69983;42.370;-71.210;2023-08-12T08:47:42;101131.25;;;25.66;23.07
80629;BME280;69983;42.370;-71.210;2023-08-12T08:49:42;101134.99;;;25.55;23.03
80629;BME280;69983;42.370;-71.210;2023-08-12T08:51:43;101134.88;;;25.61;23.08
80629;BME280;69983;42.370;-71.210;2023-08-12T08:53:43;101133.95;;;25.71;23.23
80629;BME280;69983;42.370;-71.210;2023-08-12T08:55:44;101132.45;;;26.05;23.40
80629;BME280;69983;42.370;-71.210;2023-08-12T08:57:44;101133.41;;;25.72;23.57
80629;BME280;69983;42.370;-71.210;2023-08-12T08:59:45;101140.24;;;25.27;23.82
80629;BME280;69983;42.370;-71.210;2023-08-12T09:01:46;101142.63;;;23.81;24.54
80629;BME280;69983;42.370;-71.210;2023-08-12T09:03:47;101146.23;;;24.26;24.24
80629;BME280;69983;42.370;-71.210;2023-08-12T09:05:46;101149.96;;;24.99;23.97
80629;BME280;69983;42.370;-71.210;2023-08-12T09:07:46;101152.97;;;25.04;23.88
80629;BME280;69983;42.370;-71.210;2023-08-12T09:09:49;101155.14;;;25.58;23.69
80629;BME280;69983;42.370;-71.210;2023-08-12T09:11:47;101150.22;;;25.82;23.62
80629;BME280;69983;42.370;-71.210;2023-08-12T09:13:48;101153.94;;;25.77;23.61
80629;BME280;69983;42.370;-71.210;2023-08-12T09:15:48;101159.77;;;25.93;23.49
80629;BME280;69983;42.370;-71.210;2023-08-12T09:17:48;101156.19;;;26.04;23.62
80629;BME280;69983;42.370;-71.210;2023-08-12T09:19:50;101154.86;;;25.93;23.90
80629;BME280;69983;42.370;-71.210;2023-08-12T09:21:52;101150.96;;;25.83;23.84
80629;BME280;69983;42.370;-71.210;2023-08-12T09:23:50;101148.98;;;26.10;23.86
80629;BME280;69983;42.370;-71.210;2023-08-12T09:25:50;101147.73;;;26.40;23.84
80629;BME280;69983;42.370;-71.210;2023-08-12T09:27:52;101150.22;;;26.20;23.85
80629;BME280;69983;42.370;-71.210;2023-08-12T09:29:56;101152.87;;;25.93;23.90
80629;BME280;69983;42.370;-71.210;2023-08-12T09:31:51;101155.62;;;26.19;23.93
80629;BME280;69983;42.370;-71.210;2023-08-12T09:33:52;101162.21;;;26.09;24.04
80629;BME280;69983;42.370;-71.210;2023-08-12T09:35:52;101165.78;;;26.22;23.99
80629;BME280;69983;42.370;-71.210;2023-08-12T09:37:53;101167.66;;;26.29;23.93
80629;BME280;69983;42.370;-71.210;2023-08-12T09:39:53;101163.26;;;26.28;23.96
80629;BME280;69983;42.370;-71.210;2023-08-12T09:41:54;101164.94;;;26.03;24.00
80629;BME280;69983;42.370;-71.210;2023-08-12T09:43:55;101169.86;;;26.36;23.97
80629;BME280;69983;42.370;-71.210;2023-08-12T09:45:56;101172.08;;;26.26;24.06
80629;BME280;69983;42.370;-71.210;2023-08-12T09:47:56;101169.42;;;26.32;24.04
80629;BME280;69983;42.370;-71.210;2023-08-12T09:49:57;101169.79;;;26.26;24.11
80629;BME280;69983;42.370;-71.210;2023-08-12T09:51:57;101168.57;;;26.30;24.10
80629;BME280;69983;42.370;-71.210;2023-08-12T09:53:58;101167.57;;;26.39;24.05
80629;BME280;69983;42.370;-71.210;2023-08-12T09:56:05;101164.98;;;26.41;24.07
80629;BME280;69983;42.370;-71.210;2023-08-12T09:57:59;101163.79;;;26.44;24.07
80629;BME280;69983;42.370;-71.210;2023-08-12T10:00:00;101166.30;;;26.44;24.07
80629;BME280;69983;42.370;-71.210;2023-08-12T10:02:00;101175.24;;;26.31;24.19
80629;BME280;69983;42.370;-71.210;2023-08-12T10:04:00;101174.65;;;26.37;24.17
80629;BME280;69983;42.370;-71.210;2023-08-12T10:06:00;101170.94;;;26.30;24.26
80629;BME280;69983;42.370;-71.210;2023-08-12T10:08:00;101168.40;;;26.32;24.25
80629;BME280;69983;42.370;-71.210;2023-08-12T10:10:00;101173.24;;;26.14;24.22
80629;BME280;69983;42.370;-71.210;2023-08-12T10:12:01;101175.08;;;26.34;24.29